sensor_id;sensor_type;location;lat;lon;timestamp;temperature;humidity
8037;DHT22;4061;51.360;7.340;2022-09-20T00:00:37;10.40;66.80
8037;DHT22;4061;51.360;7.340;2022-09-20T00:03:04;10.80;67.10
8037;DHT22;4061;51.360;7.340;2022-09-20T00:05:33;10.80;67.10
8037;DHT22;4061;51.360;7.340;2022-09-20T00:08:03;10.60;66.80
8037;DHT22;4061;51.360;7.340;2022-09-20T00:10:32;10.70;66.90
8037;DHT22;4061;51.360;7.340;2022-09-20T00:13:01;10.70;66.90
8037;DHT22;4061;51.360;7.340;2022-09-20T00:15:28;11.00;67.10
8037;DHT22;4061;51.360;7.340;2022-09-20T00:17:55;10.90;67.00
8037;DHT22;4061;51.360;7.340;2022-09-20T00:20:22;10.70;66.80
8037;DHT22;4061;51.360;7.340;2022-09-20T00:22:49;10.90;67.00
8037;DHT22;4061;51.360;7.340;2022-09-20T00:25:18;10.70;66.90
8037;DHT22;4061;51.360;7.340;2022-09-20T00:27:47;10.60;66.90
8037;DHT22;4061;51.360;7.340;2022-09-20T00:30:14;10.60;67.00
8037;DHT22;4061;51.360;7.340;2022-09-20T00:32:41;10.50;67.00
8037;DHT22;4061;51.360;7.340;2022-09-20T00:35:08;10.50;67.00
8037;DHT22;4061;51.360;7.340;2022-09-20T00:37:37;10.50;67.10
8037;DHT22;4061;51.360;7.340;2022-09-20T00:40:06;10.60;67.30
8037;DHT22;4061;51.360;7.340;2022-09-20T00:42:35;10.40;67.10
8037;DHT22;4061;51.360;7.340;2022-09-20T00:45:04;10.40;67.10
8037;DHT22;4061;51.360;7.340;2022-09-20T00:47:36;10.40;67.10
8037;DHT22;4061;51.360;7.340;2022-09-20T00:50:19;10.70;67.40
8037;DHT22;4061;51.360;7.340;2022-09-20T00:52:53;10.40;67.10
8037;DHT22;4061;51.360;7.340;2022-09-20T00:55:24;10.50;67.20
8037;DHT22;4061;51.360;7.340;2022-09-20T00:57:53;10.40;67.10
8037;DHT22;4061;51.360;7.340;2022-09-20T01:00:20;10.30;67.10
8037;DHT22;4061;51.360;7.340;2022-09-20T01:02:49;10.30;67.10
8037;DHT22;4061;51.360;7.340;2022-09-20T01:05:17;10.40;67.20
8037;DHT22;4061;51.360;7.340;2022-09-20T01:07:46;10.40;67.20
8037;DHT22;4061;51.360;7.340;2022-09-20T01:10:14;10.40;67.20
8037;DHT22;4061;51.360;7.340;2022-09-20T01:12:42;10.40;67.20
8037;DHT22;4061;51.360;7.340;2022-09-20T01:15:12;10.50;67.20
8037;DHT22;4061;51.360;7.340;2022-09-20T01:17:43;10.40;67.10
8037;DHT22;4061;51.360;7.340;2022-09-20T01:20:14;10.40;67.10
8037;DHT22;4061;51.360;7.340;2022-09-20T01:23:04;10.40;67.10
8037;DHT22;4061;51.360;7.340;2022-09-20T01:26:04;10.40;67.10
8037;DHT22;4061;51.360;7.340;2022-09-20T01:28:34;10.40;67.10
8037;DHT22;4061;51.360;7.340;2022-09-20T01:31:08;10.30;67.10
8037;DHT22;4061;51.360;7.340;2022-09-20T01:33:42;10.30;67.20
8037;DHT22;4061;51.360;7.340;2022-09-20T01:36:13;10.30;67.20
8037;DHT22;4061;51.360;7.340;2022-09-20T01:38:47;10.30;67.20
8037;DHT22;4061;51.360;7.340;2022-09-20T01:41:20;10.20;67.10
8037;DHT22;4061;51.360;7.340;2022-09-20T01:43:52;10.20;67.20
8037;DHT22;4061;51.360;7.340;2022-09-20T01:46:28;10.20;67.20
8037;DHT22;4061;51.360;7.340;2022-09-20T01:49:05;10.20;66.80
8037;DHT22;4061;51.360;7.340;2022-09-20T02:01:04;10.10;67.20
8037;DHT22;4061;51.360;7.340;2022-09-20T02:06:46;10.10;67.20
8037;DHT22;4061;51.360;7.340;2022-09-20T02:09:35;10.10;67.30
8037;DHT22;4061;51.360;7.340;2022-09-20T02:12:24;10.10;67.20
8037;DHT22;4061;51.360;7.340;2022-09-20T02:15:02;10.10;67.30
8037;DHT22;4061;51.360;7.340;2022-09-20T02:17:44;10.10;67.30
8037;DHT22;4061;51.360;7.340;2022-09-20T02:20:32;10.10;67.30
8037;DHT22;4061;51.360;7.340;2022-09-20T02:23:27;10.10;67.30
8037;DHT22;4061;51.360;7.340;2022-09-20T02:26:12;10.10;67.20
8037;DHT22;4061;51.360;7.340;2022-09-20T02:28:52;10.10;67.30
8037;DHT22;4061;51.360;7.340;2022-09-20T02:31:30;10.00;67.20
8037;DHT22;4061;51.360;7.340;2022-09-20T02:37:14;10.00;67.30
8037;DHT22;4061;51.360;7.340;2022-09-20T02:39:49;10.10;67.50
8037;DHT22;4061;51.360;7.340;2022-09-20T02:42:22;10.10;67.40
8037;DHT22;4061;51.360;7.340;2022-09-20T02:44:59;10.10;67.40
8037;DHT22;4061;51.360;7.340;2022-09-20T02:47:31;10.20;67.40
8037;DHT22;4061;51.360;7.340;2022-09-20T02:50:10;10.20;67.40
8037;DHT22;4061;51.360;7.340;2022-09-20T02:52:48;10.20;67.40
8037;DHT22;4061;51.360;7.340;2022-09-20T02:55:20;10.20;67.40
8037;DHT22;4061;51.360;7.340;2022-09-20T02:57:59;10.20;67.40
8037;DHT22;4061;51.360;7.340;2022-09-20T03:00:33;10.20;67.50
8037;DHT22;4061;51.360;7.340;2022-09-20T03:03:08;10.20;68.00
8037;DHT22;4061;51.360;7.340;2022-09-20T03:05:46;10.30;67.50
8037;DHT22;4061;51.360;7.340;2022-09-20T03:08:33;10.30;67.50
8037;DHT22;4061;51.360;7.340;2022-09-20T03:11:11;10.30;67.50
8037;DHT22;4061;51.360;7.340;2022-09-20T03:14:04;10.20;67.40
8037;DHT22;4061;51.360;7.340;2022-09-20T03:16:44;10.20;67.40
8037;DHT22;4061;51.360;7.340;2022-09-20T03:19:19;10.20;67.50
8037;DHT22;4061;51.360;7.340;2022-09-20T03:21:57;10.20;67.50
8037;DHT22;4061;51.360;7.340;2022-09-20T03:24:40;10.10;67.40
8037;DHT22;4061;51.360;7.340;2022-09-20T03:27:18;10.10;67.50
8037;DHT22;4061;51.360;7.340;2022-09-20T03:30:00;10.10;67.50
8037;DHT22;4061;51.360;7.340;2022-09-20T03:32:43;10.10;67.60
8037;DHT22;4061;51.360;7.340;2022-09-20T03:35:21;10.10;67.50
8037;DHT22;4061;51.360;7.340;2022-09-20T03:38:07;10.10;67.60
8037;DHT22;4061;51.360;7.340;2022-09-20T03:41:08;10.00;67.50
8037;DHT22;4061;51.360;7.340;2022-09-20T03:43:51;10.00;67.50
8037;DHT22;4061;51.360;7.340;2022-09-20T03:46:25;10.00;67.50
8037;DHT22;4061;51.360;7.340;2022-09-20T03:49:15;10.00;67.10
8037;DHT22;4061;51.360;7.340;2022-09-20T03:51:55;10.00;68.10
8037;DHT22;4061;51.360;7.340;2022-09-20T03:54:46;10.00;67.60
8037;DHT22;4061;51.360;7.340;2022-09-20T03:57:47;9.90;68.50
8037;DHT22;4061;51.360;7.340;2022-09-20T04:00:22;10.00;67.60
8037;DHT22;4061;51.360;7.340;2022-09-20T04:03:00;9.90;68.60
8037;DHT22;4061;51.360;7.340;2022-09-20T04:05:35;10.00;67.60
8037;DHT22;4061;51.360;7.340;2022-09-20T04:08:10;10.00;67.60
8037;DHT22;4061;51.360;7.340;2022-09-20T04:10:47;10.00;67.70
8037;DHT22;4061;51.360;7.340;2022-09-20T04:13:30;10.00;67.60
8037;DHT22;4061;51.360;7.340;2022-09-20T04:16:22;10.00;67.60
8037;DHT22;4061;51.360;7.340;2022-09-20T04:18:56;9.90;68.20
8037;DHT22;4061;51.360;7.340;2022-09-20T04:21:28;9.90;68.70
8037;DHT22;4061;51.360;7.340;2022-09-20T04:24:02;9.90;68.70
8037;DHT22;4061;51.360;7.340;2022-09-20T04:26:35;9.80;68.60
8037;DHT22;4061;51.360;7.340;2022-09-20T04:29:20;9.90;68.70
8037;DHT22;4061;51.360;7.340;2022-09-20T04:31:56;9.90;68.70
8037;DHT22;4061;51.360;7.340;2022-09-20T04:34:29;9.90;68.80
8037;DHT22;4061;51.360;7.340;2022-09-20T04:37:21;9.80;68.70
8037;DHT22;4061;51.360;7.340;2022-09-20T04:39:58;9.80;68.60
8037;DHT22;4061;51.360;7.340;2022-09-20T04:45:50;9.90;68.80
8037;DHT22;4061;51.360;7.340;2022-09-20T04:51:50;10.00;67.90
8037;DHT22;4061;51.360;7.340;2022-09-20T05:00:47;10.30;68.00
8037;DHT22;4061;51.360;7.340;2022-09-20T05:06:43;10.50;68.00
8037;DHT22;4061;51.360;7.340;2022-09-20T05:09:29;10.50;67.90
8037;DHT22;4061;51.360;7.340;2022-09-20T05:12:40;10.60;68.00
8037;DHT22;4061;51.360;7.340;2022-09-20T05:15:27;10.70;68.00
8037;DHT22;4061;51.360;7.340;2022-09-20T05:18:15;10.70;68.00
8037;DHT22;4061;51.360;7.340;2022-09-20T05:20:49;10.80;68.10
8037;DHT22;4061;51.360;7.340;2022-09-20T05:23:54;10.90;68.10
8037;DHT22;4061;51.360;7.340;2022-09-20T05:26:35;10.90;68.10
8037;DHT22;4061;51.360;7.340;2022-09-20T05:29:09;11.00;68.30
8037;DHT22;4061;51.360;7.340;2022-09-20T05:31:42;11.00;68.30
8037;DHT22;4061;51.360;7.340;2022-09-20T05:34:18;11.10;68.30
8037;DHT22;4061;51.360;7.340;2022-09-20T05:36:53;11.10;68.30
8037;DHT22;4061;51.360;7.340;2022-09-20T05:39:35;11.20;68.50
8037;DHT22;4061;51.360;7.340;2022-09-20T05:42:11;11.30;68.50
8037;DHT22;4061;51.360;7.340;2022-09-20T05:44:52;11.30;68.50
8037;DHT22;4061;51.360;7.340;2022-09-20T05:47:31;11.30;68.50
8037;DHT22;4061;51.360;7.340;2022-09-20T05:50:17;11.30;68.50
8037;DHT22;4061;51.360;7.340;2022-09-20T05:52:53;11.40;68.70
8037;DHT22;4061;51.360;7.340;2022-09-20T05:55:29;11.50;68.80
8037;DHT22;4061;51.360;7.340;2022-09-20T05:58:22;11.50;68.80
8037;DHT22;4061;51.360;7.340;2022-09-20T06:00:58;11.60;68.70
8037;DHT22;4061;51.360;7.340;2022-09-20T06:03:35;11.70;68.80
8037;DHT22;4061;51.360;7.340;2022-09-20T06:06:11;11.70;68.70
8037;DHT22;4061;51.360;7.340;2022-09-20T06:09:02;11.70;68.70
8037;DHT22;4061;51.360;7.340;2022-09-20T06:11:46;11.80;68.90
8037;DHT22;4061;51.360;7.340;2022-09-20T06:14:24;11.80;68.90
8037;DHT22;4061;51.360;7.340;2022-09-20T06:17:01;11.90;69.00
8037;DHT22;4061;51.360;7.340;2022-09-20T06:19:35;11.90;69.00
8037;DHT22;4061;51.360;7.340;2022-09-20T06:22:13;12.00;69.10
8037;DHT22;4061;51.360;7.340;2022-09-20T06:24:45;12.10;69.20
8037;DHT22;4061;51.360;7.340;2022-09-20T06:27:16;12.10;69.20
8037;DHT22;4061;51.360;7.340;2022-09-20T06:29:48;12.20;69.30
8037;DHT22;4061;51.360;7.340;2022-09-20T06:32:17;12.30;69.40
8037;DHT22;4061;51.360;7.340;2022-09-20T06:34:46;12.40;69.40
8037;DHT22;4061;51.360;7.340;2022-09-20T06:37:37;12.50;69.50
8037;DHT22;4061;51.360;7.340;2022-09-20T06:40:34;12.50;69.40
8037;DHT22;4061;51.360;7.340;2022-09-20T06:43:20;12.60;69.50
8037;DHT22;4061;51.360;7.340;2022-09-20T06:45:47;12.60;69.50
8037;DHT22;4061;51.360;7.340;2022-09-20T06:48:14;12.60;69.60
8037;DHT22;4061;51.360;7.340;2022-09-20T06:50:44;12.60;69.70
8037;DHT22;4061;51.360;7.340;2022-09-20T06:53:15;12.60;69.70
8037;DHT22;4061;51.360;7.340;2022-09-20T06:55:44;12.60;69.80
8037;DHT22;4061;51.360;7.340;2022-09-20T06:58:11;12.60;70.50
8037;DHT22;4061;51.360;7.340;2022-09-20T07:00:38;12.70;70.00
8037;DHT22;4061;51.360;7.340;2022-09-20T07:03:06;12.80;70.10
8037;DHT22;4061;51.360;7.340;2022-09-20T07:05:33;12.80;70.00
8037;DHT22;4061;51.360;7.340;2022-09-20T07:08:01;13.00;70.30
8037;DHT22;4061;51.360;7.340;2022-09-20T07:10:29;13.20;70.40
8037;DHT22;4061;51.360;7.340;2022-09-20T07:12:57;13.50;70.20
8037;DHT22;4061;51.360;7.340;2022-09-20T07:15:25;13.80;70.00
8037;DHT22;4061;51.360;7.340;2022-09-20T07:17:52;13.90;69.80
8037;DHT22;4061;51.360;7.340;2022-09-20T07:20:19;13.90;69.70
8037;DHT22;4061;51.360;7.340;2022-09-20T07:22:46;13.90;69.80
8037;DHT22;4061;51.360;7.340;2022-09-20T07:25:14;13.90;69.90
8037;DHT22;4061;51.360;7.340;2022-09-20T07:27:44;13.80;69.70
8037;DHT22;4061;51.360;7.340;2022-09-20T07:30:12;13.70;69.90
8037;DHT22;4061;51.360;7.340;2022-09-20T07:32:40;13.60;70.00
8037;DHT22;4061;51.360;7.340;2022-09-20T07:35:07;13.50;70.20
8037;DHT22;4061;51.360;7.340;2022-09-20T07:37:35;13.50;70.30
8037;DHT22;4061;51.360;7.340;2022-09-20T07:40:03;13.50;70.40
8037;DHT22;4061;51.360;7.340;2022-09-20T07:42:30;13.50;70.50
8037;DHT22;4061;51.360;7.340;2022-09-20T07:44:59;13.50;70.50
8037;DHT22;4061;51.360;7.340;2022-09-20T07:47:27;13.60;70.50
8037;DHT22;4061;51.360;7.340;2022-09-20T07:49:56;13.60;70.50
8037;DHT22;4061;51.360;7.340;2022-09-20T07:52:23;13.70;70.60
8037;DHT22;4061;51.360;7.340;2022-09-20T07:54:50;13.90;70.60
8037;DHT22;4061;51.360;7.340;2022-09-20T07:57:17;14.00;70.50
8037;DHT22;4061;51.360;7.340;2022-09-20T07:59:43;14.20;70.40
8037;DHT22;4061;51.360;7.340;2022-09-20T08:02:14;14.30;70.20
8037;DHT22;4061;51.360;7.340;2022-09-20T08:04:41;14.30;70.00
8037;DHT22;4061;51.360;7.340;2022-09-20T08:07:08;14.20;69.90
8037;DHT22;4061;51.360;7.340;2022-09-20T08:09:35;14.10;70.00
8037;DHT22;4061;51.360;7.340;2022-09-20T08:12:02;14.10;70.10
8037;DHT22;4061;51.360;7.340;2022-09-20T08:14:30;14.00;70.20
8037;DHT22;4061;51.360;7.340;2022-09-20T08:16:57;14.00;70.40
8037;DHT22;4061;51.360;7.340;2022-09-20T08:19:26;14.10;70.70
8037;DHT22;4061;51.360;7.340;2022-09-20T08:21:53;14.30;70.90
8037;DHT22;4061;51.360;7.340;2022-09-20T08:24:20;14.60;70.80
8037;DHT22;4061;51.360;7.340;2022-09-20T08:26:47;14.90;70.80
8037;DHT22;4061;51.360;7.340;2022-09-20T08:29:14;15.10;70.60
8037;DHT22;4061;51.360;7.340;2022-09-20T08:31:41;15.40;70.60
8037;DHT22;4061;51.360;7.340;2022-09-20T08:34:10;15.60;70.50
8037;DHT22;4061;51.360;7.340;2022-09-20T08:36:41;15.70;70.40
8037;DHT22;4061;51.360;7.340;2022-09-20T08:39:10;15.70;70.40
8037;DHT22;4061;51.360;7.340;2022-09-20T08:41:41;15.80;70.50
8037;DHT22;4061;51.360;7.340;2022-09-20T08:46:47;16.00;69.90
8037;DHT22;4061;51.360;7.340;2022-09-20T08:49:21;16.10;70.80
8037;DHT22;4061;51.360;7.340;2022-09-20T08:51:53;16.30;70.30
8037;DHT22;4061;51.360;7.340;2022-09-20T08:54:23;16.40;70.20
8037;DHT22;4061;51.360;7.340;2022-09-20T08:56:50;16.40;70.10
8037;DHT22;4061;51.360;7.340;2022-09-20T08:59:19;16.40;70.00
8037;DHT22;4061;51.360;7.340;2022-09-20T09:01:48;16.40;70.50
8037;DHT22;4061;51.360;7.340;2022-09-20T09:04:17;16.40;70.00
8037;DHT22;4061;51.360;7.340;2022-09-20T09:06:47;16.40;69.90
8037;DHT22;4061;51.360;7.340;2022-09-20T09:09:19;16.40;70.50
8037;DHT22;4061;51.360;7.340;2022-09-20T09:11:48;16.40;70.40
8037;DHT22;4061;51.360;7.340;2022-09-20T09:14:23;16.50;70.00
8037;DHT22;4061;51.360;7.340;2022-09-20T09:17:09;16.50;69.70
8037;DHT22;4061;51.360;7.340;2022-09-20T09:19:46;16.50;69.50
8037;DHT22;4061;51.360;7.340;2022-09-20T09:22:19;16.40;69.30
8037;DHT22;4061;51.360;7.340;2022-09-20T09:25:06;16.20;69.50
8037;DHT22;4061;51.360;7.340;2022-09-20T09:27:33;16.10;69.50
8037;DHT22;4061;51.360;7.340;2022-09-20T09:30:01;16.00;69.40
8037;DHT22;4061;51.360;7.340;2022-09-20T09:32:30;15.80;69.20
8037;DHT22;4061;51.360;7.340;2022-09-20T09:35:21;15.60;69.30
8037;DHT22;4061;51.360;7.340;2022-09-20T09:37:53;15.50;69.40
8037;DHT22;4061;51.360;7.340;2022-09-20T09:40:22;15.40;69.60
8037;DHT22;4061;51.360;7.340;2022-09-20T09:42:51;15.40;69.70
8037;DHT22;4061;51.360;7.340;2022-09-20T09:45:29;15.40;69.50
8037;DHT22;4061;51.360;7.340;2022-09-20T09:47:57;15.40;69.70
8037;DHT22;4061;51.360;7.340;2022-09-20T09:50:27;15.40;69.60
8037;DHT22;4061;51.360;7.340;2022-09-20T09:53:05;15.40;69.50
8037;DHT22;4061;51.360;7.340;2022-09-20T09:55:50;15.40;69.50
8037;DHT22;4061;51.360;7.340;2022-09-20T09:58:27;15.50;69.50
8037;DHT22;4061;51.360;7.340;2022-09-20T10:00:57;15.60;69.50
8037;DHT22;4061;51.360;7.340;2022-09-20T10:03:41;15.80;69.40
8037;DHT22;4061;51.360;7.340;2022-09-20T10:06:18;15.90;69.20
8037;DHT22;4061;51.360;7.340;2022-09-20T10:08:57;16.00;68.90
8037;DHT22;4061;51.360;7.340;2022-09-20T10:11:36;16.00;69.30
8037;DHT22;4061;51.360;7.340;2022-09-20T10:14:18;16.00;69.10
8037;DHT22;4061;51.360;7.340;2022-09-20T10:17:02;16.10;69.00
8037;DHT22;4061;51.360;7.340;2022-09-20T10:19:47;16.10;68.80
8037;DHT22;4061;51.360;7.340;2022-09-20T10:22:21;16.10;68.80
8037;DHT22;4061;51.360;7.340;2022-09-20T10:25:02;16.10;68.80
8037;DHT22;4061;51.360;7.340;2022-09-20T10:27:47;16.10;68.90
8037;DHT22;4061;51.360;7.340;2022-09-20T10:30:20;16.10;69.30
8037;DHT22;4061;51.360;7.340;2022-09-20T10:32:59;16.10;68.80
8037;DHT22;4061;51.360;7.340;2022-09-20T10:35:54;16.10;68.80
8037;DHT22;4061;51.360;7.340;2022-09-20T10:38:26;16.20;68.70
8037;DHT22;4061;51.360;7.340;2022-09-20T10:41:12;16.30;68.70
8037;DHT22;4061;51.360;7.340;2022-09-20T10:44:11;16.30;68.60
8037;DHT22;4061;51.360;7.340;2022-09-20T10:46:51;16.30;68.50
8037;DHT22;4061;51.360;7.340;2022-09-20T10:49:26;16.20;68.40
8037;DHT22;4061;51.360;7.340;2022-09-20T10:52:17;16.10;68.20
8037;DHT22;4061;51.360;7.340;2022-09-20T10:54:56;15.80;68.20
8037;DHT22;4061;51.360;7.340;2022-09-20T10:57:43;15.60;68.40
8037;DHT22;4061;51.360;7.340;2022-09-20T11:00:20;15.40;68.60
8037;DHT22;4061;51.360;7.340;2022-09-20T11:02:57;15.40;68.80
8037;DHT22;4061;51.360;7.340;2022-09-20T11:05:34;15.40;68.80
8037;DHT22;4061;51.360;7.340;2022-09-20T11:08:08;15.30;68.70
8037;DHT22;4061;51.360;7.340;2022-09-20T11:10:41;15.30;68.70
8037;DHT22;4061;51.360;7.340;2022-09-20T11:13:21;15.20;68.50
8037;DHT22;4061;51.360;7.340;2022-09-20T11:15:59;15.10;68.40
8037;DHT22;4061;51.360;7.340;2022-09-20T11:18:31;15.10;68.50
8037;DHT22;4061;51.360;7.340;2022-09-20T11:21:07;15.20;68.80
8037;DHT22;4061;51.360;7.340;2022-09-20T11:23:41;15.40;68.70
8037;DHT22;4061;51.360;7.340;2022-09-20T11:26:12;15.60;68.50
8037;DHT22;4061;51.360;7.340;2022-09-20T11:28:43;15.70;68.10
8037;DHT22;4061;51.360;7.340;2022-09-20T11:31:19;15.80;68.10
8037;DHT22;4061;51.360;7.340;2022-09-20T11:33:51;15.90;68.10
8037;DHT22;4061;51.360;7.340;2022-09-20T11:36:24;15.90;68.00
8037;DHT22;4061;51.360;7.340;2022-09-20T11:38:55;16.00;67.90
8037;DHT22;4061;51.360;7.340;2022-09-20T11:41:27;15.20;67.30
8037;DHT22;4061;51.360;7.340;2022-09-20T11:43:58;16.20;68.10
8037;DHT22;4061;51.360;7.340;2022-09-20T11:46:32;16.70;68.50
8037;DHT22;4061;51.360;7.340;2022-09-20T11:49:01;16.30;67.80
8037;DHT22;4061;51.360;7.340;2022-09-20T11:52:04;16.40;67.80
8037;DHT22;4061;51.360;7.340;2022-09-20T11:55:03;16.60;67.70
8037;DHT22;4061;51.360;7.340;2022-09-20T11:57:33;16.70;67.60
8037;DHT22;4061;51.360;7.340;2022-09-20T12:00:01;16.90;67.60
8037;DHT22;4061;51.360;7.340;2022-09-20T12:02:34;17.00;67.30
8037;DHT22;4061;51.360;7.340;2022-09-20T12:05:03;17.10;67.30
8037;DHT22;4061;51.360;7.340;2022-09-20T12:07:33;17.10;67.20
8037;DHT22;4061;51.360;7.340;2022-09-20T12:10:03;17.20;67.10
8037;DHT22;4061;51.360;7.340;2022-09-20T12:12:36;17.40;67.10
8037;DHT22;4061;51.360;7.340;2022-09-20T12:15:20;17.60;66.90
8037;DHT22;4061;51.360;7.340;2022-09-20T12:21:11;17.70;66.50
8037;DHT22;4061;51.360;7.340;2022-09-20T12:24:01;17.60;66.50
8037;DHT22;4061;51.360;7.340;2022-09-20T12:26:52;17.60;66.60
8037;DHT22;4061;51.360;7.340;2022-09-20T12:32:48;17.60;66.30
8037;DHT22;4061;51.360;7.340;2022-09-20T12:38:37;17.40;66.40
8037;DHT22;4061;51.360;7.340;2022-09-20T12:41:10;17.30;66.60
8037;DHT22;4061;51.360;7.340;2022-09-20T12:43:48;17.20;66.50
8037;DHT22;4061;51.360;7.340;2022-09-20T12:46:22;17.60;66.80
8037;DHT22;4061;51.360;7.340;2022-09-20T12:48:50;17.10;66.30
8037;DHT22;4061;51.360;7.340;2022-09-20T12:51:23;17.20;66.20
8037;DHT22;4061;51.360;7.340;2022-09-20T12:54:10;16.90;65.90
8037;DHT22;4061;51.360;7.340;2022-09-20T12:56:39;16.80;66.00
8037;DHT22;4061;51.360;7.340;2022-09-20T12:59:20;16.60;66.00
8037;DHT22;4061;51.360;7.340;2022-09-20T13:01:49;16.40;66.00
8037;DHT22;4061;51.360;7.340;2022-09-20T13:07:35;16.20;66.00
8037;DHT22;4061;51.360;7.340;2022-09-20T13:10:19;16.20;66.10
8037;DHT22;4061;51.360;7.340;2022-09-20T13:12:48;16.10;66.00
8037;DHT22;4061;51.360;7.340;2022-09-20T13:15:18;16.00;65.90
8037;DHT22;4061;51.360;7.340;2022-09-20T13:17:47;16.00;65.90
8037;DHT22;4061;51.360;7.340;2022-09-20T13:20:20;15.90;65.80
8037;DHT22;4061;51.360;7.340;2022-09-20T13:22:48;15.80;65.80
8037;DHT22;4061;51.360;7.340;2022-09-20T13:25:17;16.20;66.20
8037;DHT22;4061;51.360;7.340;2022-09-20T13:27:49;15.90;65.80
8037;DHT22;4061;51.360;7.340;2022-09-20T13:30:21;15.90;65.60
8037;DHT22;4061;51.360;7.340;2022-09-20T13:32:48;16.10;65.50
8037;DHT22;4061;51.360;7.340;2022-09-20T13:35:17;16.20;65.20
8037;DHT22;4061;51.360;7.340;2022-09-20T13:37:50;16.30;65.00
8037;DHT22;4061;51.360;7.340;2022-09-20T13:40:21;17.00;65.40
8037;DHT22;4061;51.360;7.340;2022-09-20T13:42:50;16.90;64.90
8037;DHT22;4061;51.360;7.340;2022-09-20T13:45:18;17.20;64.70
8037;DHT22;4061;51.360;7.340;2022-09-20T13:47:49;17.40;64.40
8037;DHT22;4061;51.360;7.340;2022-09-20T13:50:21;17.60;64.30
8037;DHT22;4061;51.360;7.340;2022-09-20T13:52:50;17.60;64.20
8037;DHT22;4061;51.360;7.340;2022-09-20T13:55:29;17.60;64.10
8037;DHT22;4061;51.360;7.340;2022-09-20T13:58:00;17.50;63.90
8037;DHT22;4061;51.360;7.340;2022-09-20T14:00:29;17.30;64.00
8037;DHT22;4061;51.360;7.340;2022-09-20T14:02:57;17.10;64.00
8037;DHT22;4061;51.360;7.340;2022-09-20T14:05:25;17.00;64.10
8037;DHT22;4061;51.360;7.340;2022-09-20T14:07:54;16.90;63.90
8037;DHT22;4061;51.360;7.340;2022-09-20T14:10:28;16.70;63.80
8037;DHT22;4061;51.360;7.340;2022-09-20T14:12:57;16.50;63.80
8037;DHT22;4061;51.360;7.340;2022-09-20T14:15:29;16.40;63.90
8037;DHT22;4061;51.360;7.340;2022-09-20T14:17:57;16.30;63.90
8037;DHT22;4061;51.360;7.340;2022-09-20T14:20:24;16.30;63.80
8037;DHT22;4061;51.360;7.340;2022-09-20T14:22:52;16.20;63.60
8037;DHT22;4061;51.360;7.340;2022-09-20T14:25:22;16.10;63.40
8037;DHT22;4061;51.360;7.340;2022-09-20T14:28:05;16.00;63.30
8037;DHT22;4061;51.360;7.340;2022-09-20T14:30:34;16.30;63.40
8037;DHT22;4061;51.360;7.340;2022-09-20T14:33:02;16.20;63.40
8037;DHT22;4061;51.360;7.340;2022-09-20T14:35:31;15.90;63.10
8037;DHT22;4061;51.360;7.340;2022-09-20T14:38:00;15.90;63.00
8037;DHT22;4061;51.360;7.340;2022-09-20T14:40:29;15.90;62.90
8037;DHT22;4061;51.360;7.340;2022-09-20T14:42:57;16.20;63.00
8037;DHT22;4061;51.360;7.340;2022-09-20T14:45:29;15.90;62.70
8037;DHT22;4061;51.360;7.340;2022-09-20T14:48:01;15.90;62.10
8037;DHT22;4061;51.360;7.340;2022-09-20T14:50:30;15.90;62.40
8037;DHT22;4061;51.360;7.340;2022-09-20T14:52:59;15.90;62.30
8037;DHT22;4061;51.360;7.340;2022-09-20T14:55:27;15.90;62.20
8037;DHT22;4061;51.360;7.340;2022-09-20T14:57:58;15.90;62.10
8037;DHT22;4061;51.360;7.340;2022-09-20T15:00:27;15.90;62.10
8037;DHT22;4061;51.360;7.340;2022-09-20T15:03:00;15.90;62.10
8037;DHT22;4061;51.360;7.340;2022-09-20T15:05:29;15.80;62.10
8037;DHT22;4061;51.360;7.340;2022-09-20T15:07:56;15.80;62.00
8037;DHT22;4061;51.360;7.340;2022-09-20T15:10:24;15.90;62.00
8037;DHT22;4061;51.360;7.340;2022-09-20T15:12:51;16.30;62.30
8037;DHT22;4061;51.360;7.340;2022-09-20T15:15:18;16.10;62.10
8037;DHT22;4061;51.360;7.340;2022-09-20T15:17:46;15.90;61.80
8037;DHT22;4061;51.360;7.340;2022-09-20T15:20:16;15.90;61.80
8037;DHT22;4061;51.360;7.340;2022-09-20T15:22:45;15.90;61.80
8037;DHT22;4061;51.360;7.340;2022-09-20T15:25:14;15.90;61.80
8037;DHT22;4061;51.360;7.340;2022-09-20T15:27:42;15.90;61.80
8037;DHT22;4061;51.360;7.340;2022-09-20T15:30:12;15.80;61.70
8037;DHT22;4061;51.360;7.340;2022-09-20T15:32:39;15.90;61.80
8037;DHT22;4061;51.360;7.340;2022-09-20T15:35:07;15.80;61.70
8037;DHT22;4061;51.360;7.340;2022-09-20T15:37:35;15.80;61.70
8037;DHT22;4061;51.360;7.340;2022-09-20T15:40:02;15.80;61.70
8037;DHT22;4061;51.360;7.340;2022-09-20T15:42:29;15.80;61.70
8037;DHT22;4061;51.360;7.340;2022-09-20T15:44:56;15.80;61.80
8037;DHT22;4061;51.360;7.340;2022-09-20T15:47:23;16.10;62.10
8037;DHT22;4061;51.360;7.340;2022-09-20T15:49:52;15.60;61.80
8037;DHT22;4061;51.360;7.340;2022-09-20T15:52:21;15.50;61.80
8037;DHT22;4061;51.360;7.340;2022-09-20T15:54:50;15.40;61.80
8037;DHT22;4061;51.360;7.340;2022-09-20T15:57:17;15.50;62.00
8037;DHT22;4061;51.360;7.340;2022-09-20T15:59:45;15.30;61.80
8037;DHT22;4061;51.360;7.340;2022-09-20T16:02:13;15.30;61.80
8037;DHT22;4061;51.360;7.340;2022-09-20T16:04:40;15.40;61.80
8037;DHT22;4061;51.360;7.340;2022-09-20T16:07:07;15.30;61.70
8037;DHT22;4061;51.360;7.340;2022-09-20T16:09:36;15.30;61.70
8037;DHT22;4061;51.360;7.340;2022-09-20T16:12:04;15.30;61.70
8037;DHT22;4061;51.360;7.340;2022-09-20T16:14:31;15.20;62.10
8037;DHT22;4061;51.360;7.340;2022-09-20T16:16:58;15.10;61.50
8037;DHT22;4061;51.360;7.340;2022-09-20T16:19:24;15.10;62.20
8037;DHT22;4061;51.360;7.340;2022-09-20T16:21:52;16.50;63.00
8037;DHT22;4061;51.360;7.340;2022-09-20T16:24:22;14.90;61.60
8037;DHT22;4061;51.360;7.340;2022-09-20T16:26:50;14.80;61.60
8037;DHT22;4061;51.360;7.340;2022-09-20T16:29:17;14.70;61.60
8037;DHT22;4061;51.360;7.340;2022-09-20T16:31:47;14.60;61.60
8037;DHT22;4061;51.360;7.340;2022-09-20T16:34:16;14.60;61.70
8037;DHT22;4061;51.360;7.340;2022-09-20T16:36:44;14.40;61.60
8037;DHT22;4061;51.360;7.340;2022-09-20T16:39:12;14.40;61.60
8037;DHT22;4061;51.360;7.340;2022-09-20T16:41:39;14.40;61.60
8037;DHT22;4061;51.360;7.340;2022-09-20T16:44:07;14.30;61.50
8037;DHT22;4061;51.360;7.340;2022-09-20T16:46:34;14.40;61.50
8037;DHT22;4061;51.360;7.340;2022-09-20T16:49:03;14.30;61.30
8037;DHT22;4061;51.360;7.340;2022-09-20T16:51:33;14.30;61.20
8037;DHT22;4061;51.360;7.340;2022-09-20T16:54:01;14.30;61.20
8037;DHT22;4061;51.360;7.340;2022-09-20T16:56:30;14.40;61.20
8037;DHT22;4061;51.360;7.340;2022-09-20T16:58:58;14.40;61.20
8037;DHT22;4061;51.360;7.340;2022-09-20T17:01:27;14.40;61.10
8037;DHT22;4061;51.360;7.340;2022-09-20T17:03:54;14.50;61.20
8037;DHT22;4061;51.360;7.340;2022-09-20T17:06:22;14.50;61.20
8037;DHT22;4061;51.360;7.340;2022-09-20T17:08:51;14.50;61.20
8037;DHT22;4061;51.360;7.340;2022-09-20T17:11:20;14.40;61.10
8037;DHT22;4061;51.360;7.340;2022-09-20T17:13:48;14.50;61.30
8037;DHT22;4061;51.360;7.340;2022-09-20T17:16:18;14.70;61.50
8037;DHT22;4061;51.360;7.340;2022-09-20T17:18:50;14.40;61.30
8037;DHT22;4061;51.360;7.340;2022-09-20T17:21:17;14.30;61.30
8037;DHT22;4061;51.360;7.340;2022-09-20T17:23:46;14.30;61.30
8037;DHT22;4061;51.360;7.340;2022-09-20T17:26:14;14.20;61.30
8037;DHT22;4061;51.360;7.340;2022-09-20T17:28:43;14.20;61.40
8037;DHT22;4061;51.360;7.340;2022-09-20T17:31:12;14.20;61.40